createdAt,value
2023-05-19T00:00:02.074Z,91.40
2023-05-19T00:02:39.555Z,91.40
2023-05-19T00:05:06.976Z,91.40
2023-05-19T00:07:36.098Z,91.30
2023-05-19T00:10:03.019Z,91.40
2023-05-19T00:12:30.132Z,91.30
2023-05-19T00:14:57.035Z,91.40
2023-05-19T00:17:24.157Z,91.30
2023-05-19T00:19:52.404Z,91.40
2023-05-19T00:22:19.070Z,91.40
2023-05-19T00:24:45.708Z,91.40
2023-05-19T00:27:12.399Z,91.50
2023-05-19T00:29:39.224Z,91.50
2023-05-19T00:32:06.065Z,91.30
2023-05-19T00:34:33.372Z,91.40
2023-05-19T00:37:00.034Z,91.30
2023-05-19T00:39:26.680Z,91.40
2023-05-19T00:41:53.340Z,91.50
2023-05-19T00:44:20.044Z,91.40
2023-05-19T00:46:46.861Z,91.40
2023-05-19T00:49:13.577Z,91.40
2023-05-19T00:51:41.311Z,91.90
2023-05-19T00:54:08.934Z,91.60
2023-05-19T00:56:35.860Z,91.70
2023-05-19T00:59:03.015Z,91.70
2023-05-19T01:01:29.822Z,91.80
2023-05-19T01:03:59.063Z,91.70
2023-05-19T01:06:27.670Z,91.60
2023-05-19T01:08:54.406Z,91.70
2023-05-19T01:11:21.508Z,91.70
2023-05-19T01:13:48.428Z,91.90
2023-05-19T01:16:25.436Z,91.70
2023-05-19T01:19:01.741Z,91.70
2023-05-19T01:21:47.832Z,91.80
2023-05-19T01:25:01.903Z,91.70
2023-05-19T01:27:51.518Z,92.10
2023-05-19T01:30:25.385Z,91.70
2023-05-19T01:32:56.249Z,91.70
2023-05-19T01:35:26.000Z,91.70
2023-05-19T01:37:55.743Z,91.60
2023-05-19T01:40:23.448Z,91.70
2023-05-19T01:42:55.042Z,91.70
2023-05-19T01:45:24.307Z,91.70
2023-05-19T01:47:54.651Z,91.80
2023-05-19T01:50:22.052Z,92.00
2023-05-19T01:52:49.909Z,91.90
2023-05-19T01:55:16.885Z,91.90
2023-05-19T01:58:03.463Z,91.90
2023-05-19T02:00:49.295Z,92.00
2023-05-19T02:03:44.075Z,92.00
2023-05-19T02:06:37.665Z,92.00
2023-05-19T02:09:29.650Z,92.00
2023-05-19T02:12:02.688Z,92.10
2023-05-19T02:14:35.345Z,92.00
2023-05-19T02:17:05.085Z,92.00
2023-05-19T02:19:36.036Z,92.10
2023-05-19T02:22:02.809Z,92.10
2023-05-19T02:24:29.520Z,92.30
2023-05-19T02:26:56.258Z,92.40
2023-05-19T02:29:22.984Z,92.40
2023-05-19T02:31:50.476Z,92.40
2023-05-19T02:34:17.232Z,92.50
2023-05-19T02:36:44.411Z,92.50
2023-05-19T02:39:12.141Z,92.50
2023-05-19T02:41:39.253Z,92.50
2023-05-19T02:44:06.191Z,92.50
2023-05-19T02:46:33.420Z,92.50
2023-05-19T02:49:00.259Z,92.50
2023-05-19T02:51:27.686Z,92.60
2023-05-19T02:53:54.523Z,92.60
2023-05-19T02:56:21.715Z,92.70
2023-05-19T02:58:48.482Z,92.50
2023-05-19T03:01:16.403Z,92.70
2023-05-19T03:03:43.305Z,92.70
2023-05-19T03:06:10.059Z,92.60
2023-05-19T03:08:36.805Z,92.80
2023-05-19T03:11:03.737Z,92.80
2023-05-19T03:13:30.506Z,93.00
2023-05-19T03:15:59.063Z,92.80
2023-05-19T03:18:26.979Z,93.00
2023-05-19T03:20:56.759Z,93.00
2023-05-19T03:23:23.470Z,93.00
2023-05-19T03:25:50.814Z,93.10
2023-05-19T03:28:18.055Z,93.30
2023-05-19T03:30:45.125Z,93.10
2023-05-19T03:33:17.304Z,93.30
2023-05-19T03:35:45.624Z,93.30
2023-05-19T03:38:12.918Z,93.30
2023-05-19T03:40:45.059Z,93.30
2023-05-19T03:43:13.042Z,93.40
2023-05-19T03:45:46.201Z,93.40
2023-05-19T03:48:31.687Z,93.30
2023-05-19T03:51:17.507Z,93.40
2023-05-19T03:53:45.619Z,93.60
2023-05-19T03:56:13.735Z,93.40
2023-05-19T03:58:44.338Z,93.50
2023-05-19T04:01:11.719Z,93.70
2023-05-19T04:03:38.494Z,93.70
2023-05-19T04:06:05.429Z,93.70
2023-05-19T04:08:32.215Z,93.60
2023-05-19T04:10:58.992Z,93.70
2023-05-19T04:13:25.738Z,93.70
2023-05-19T04:15:52.804Z,93.80
2023-05-19T04:18:19.918Z,93.90
2023-05-19T04:20:46.703Z,93.90
2023-05-19T04:23:13.393Z,93.90
2023-05-19T04:25:40.921Z,94.10
2023-05-19T04:28:07.731Z,94.00
2023-05-19T04:30:34.655Z,94.10
2023-05-19T04:33:04.831Z,94.20
2023-05-19T04:35:31.786Z,94.10
2023-05-19T04:38:01.515Z,94.20
2023-05-19T04:40:31.215Z,94.20
2023-05-19T04:42:59.033Z,94.10
2023-05-19T04:45:26.070Z,94.20
2023-05-19T04:47:58.022Z,94.30
2023-05-19T04:50:25.225Z,94.30
2023-05-19T04:52:52.640Z,94.30
2023-05-19T04:55:19.585Z,94.40
2023-05-19T04:57:47.737Z,94.40
2023-05-19T05:00:15.380Z,94.40
2023-05-19T05:02:52.431Z,94.30
2023-05-19T05:05:21.113Z,94.30
2023-05-19T05:07:47.870Z,94.40
2023-05-19T05:10:17.300Z,94.50
2023-05-19T05:12:44.128Z,94.40
2023-05-19T05:15:11.477Z,94.30
2023-05-19T05:17:38.962Z,94.40
2023-05-19T05:20:06.844Z,94.40
2023-05-19T05:22:34.021Z,94.50
2023-05-19T05:25:01.817Z,94.40
2023-05-19T05:27:28.928Z,94.10
2023-05-19T05:29:56.900Z,94.30
2023-05-19T05:32:26.665Z,94.40
2023-05-19T05:34:54.719Z,94.30
2023-05-19T05:37:21.976Z,94.60
2023-05-19T05:39:48.902Z,94.60
2023-05-19T05:42:16.193Z,94.70
2023-05-19T05:44:43.345Z,94.60
2023-05-19T05:47:11.942Z,94.60
2023-05-19T05:49:40.177Z,94.50
2023-05-19T05:52:09.066Z,94.60
2023-05-19T05:54:42.485Z,94.50
2023-05-19T05:57:10.173Z,94.70
2023-05-19T05:59:38.623Z,94.50
2023-05-19T06:02:05.364Z,94.50
2023-05-19T06:04:33.365Z,94.50
2023-05-19T06:07:01.649Z,94.40
2023-05-19T06:09:32.812Z,94.40
2023-05-19T06:12:02.218Z,94.40
2023-05-19T06:14:34.097Z,94.10
2023-05-19T06:17:13.680Z,94.10
2023-05-19T06:19:40.542Z,94.30
2023-05-19T06:22:07.273Z,94.30
2023-05-19T06:24:34.401Z,94.30
2023-05-19T06:27:02.413Z,94.30
2023-05-19T06:29:29.344Z,93.90
2023-05-19T06:32:00.584Z,93.90
2023-05-19T06:34:27.338Z,94.10
2023-05-19T06:36:54.097Z,94.10
2023-05-19T06:39:21.798Z,94.10
2023-05-19T06:41:48.707Z,94.20
2023-05-19T06:44:35.436Z,94.10
2023-05-19T06:47:02.134Z,94.10
2023-05-19T06:49:29.876Z,93.70
2023-05-19T06:51:56.545Z,93.80
2023-05-19T06:54:23.288Z,94.10
2023-05-19T06:56:50.042Z,94.10
2023-05-19T06:59:16.755Z,93.90
2023-05-19T07:01:45.032Z,94.00
2023-05-19T07:04:12.198Z,94.10
2023-05-19T07:06:40.433Z,94.50
2023-05-19T07:09:08.978Z,94.20
2023-05-19T07:11:37.540Z,94.20
2023-05-19T07:14:05.171Z,94.30
2023-05-19T07:16:32.391Z,94.00
2023-05-19T07:18:59.591Z,94.40
2023-05-19T07:21:26.402Z,94.30
2023-05-19T07:23:53.123Z,94.20
2023-05-19T07:26:19.839Z,94.10
2023-05-19T07:28:46.535Z,94.10
2023-05-19T07:31:13.191Z,95.40
2023-05-19T07:33:40.863Z,94.70
2023-05-19T07:36:07.574Z,94.50
2023-05-19T07:38:34.746Z,94.30
2023-05-19T07:41:02.283Z,96.80
2023-05-19T07:43:28.999Z,94.80
2023-05-19T07:45:56.381Z,95.40
2023-05-19T07:48:25.528Z,94.20
2023-05-19T07:50:53.008Z,94.70
2023-05-19T07:53:20.282Z,94.50
2023-05-19T07:55:47.048Z,94.70
2023-05-19T07:58:13.833Z,94.80
2023-05-19T08:00:43.003Z,94.60
2023-05-19T08:03:10.168Z,96.80
2023-05-19T08:05:37.441Z,95.40
2023-05-19T08:08:04.329Z,95.30
2023-05-19T08:10:31.365Z,94.70
2023-05-19T08:12:58.234Z,94.70
2023-05-19T08:15:25.360Z,94.30
2023-05-19T08:17:52.102Z,94.60
2023-05-19T08:20:19.288Z,94.20
2023-05-19T08:22:46.029Z,94.70
2023-05-19T08:25:13.745Z,98.00
2023-05-19T08:27:40.521Z,96.60
2023-05-19T08:30:07.994Z,95.20
2023-05-19T08:32:34.758Z,95.00
2023-05-19T08:35:01.408Z,97.00
2023-05-19T08:37:28.139Z,95.20
2023-05-19T08:39:55.101Z,94.80
2023-05-19T08:42:21.733Z,97.00
2023-05-19T08:44:48.402Z,95.10
2023-05-19T08:47:15.384Z,94.30
2023-05-19T08:49:51.913Z,96.10
2023-05-19T08:52:35.399Z,95.80
2023-05-19T08:55:09.612Z,95.90
2023-05-19T08:57:38.139Z,98.10
2023-05-19T09:00:12.316Z,98.40
2023-05-19T09:02:50.380Z,96.00
2023-05-19T09:05:26.566Z,95.80
2023-05-19T09:07:53.336Z,96.50
2023-05-19T09:10:20.031Z,98.40
2023-05-19T09:12:47.731Z,95.40
2023-05-19T09:15:18.694Z,96.50
2023-05-19T09:17:47.960Z,95.30
2023-05-19T09:20:17.252Z,98.10
2023-05-19T09:22:47.138Z,97.00
2023-05-19T09:25:23.740Z,97.00
2023-05-19T09:27:50.633Z,97.00
2023-05-19T09:30:17.934Z,97.40
2023-05-19T09:32:45.080Z,95.70
2023-05-19T09:35:13.105Z,97.70
2023-05-19T09:37:41.077Z,97.80
2023-05-19T09:40:13.373Z,97.80
2023-05-19T09:42:41.143Z,95.10
2023-05-19T09:45:11.963Z,93.50
2023-05-19T09:47:42.186Z,95.10
2023-05-19T09:50:11.765Z,94.80
2023-05-19T09:52:40.749Z,94.40
2023-05-19T09:55:10.953Z,95.20
2023-05-19T09:57:38.435Z,96.30
2023-05-19T10:00:11.800Z,97.80
2023-05-19T10:02:43.589Z,98.20
2023-05-19T10:05:17.493Z,97.80
2023-05-19T10:07:45.745Z,96.80
2023-05-19T10:10:14.000Z,96.60
2023-05-19T10:12:41.885Z,98.10
2023-05-19T10:15:14.166Z,94.70
2023-05-19T10:17:42.891Z,98.20
2023-05-19T10:20:17.308Z,97.80
2023-05-19T10:22:45.784Z,97.30
2023-05-19T10:25:15.073Z,98.40
2023-05-19T10:27:51.932Z,98.30
2023-05-19T10:30:26.302Z,98.00
2023-05-19T10:32:57.168Z,97.90
2023-05-19T10:35:47.200Z,95.10
2023-05-19T10:38:21.474Z,97.20
2023-05-19T10:41:00.068Z,98.20
2023-05-19T10:43:45.862Z,97.20
2023-05-19T10:46:12.673Z,95.50
2023-05-19T10:48:45.459Z,94.80
2023-05-19T10:51:12.408Z,93.10
2023-05-19T10:53:49.980Z,95.40
2023-05-19T10:56:47.392Z,94.80
2023-05-19T10:59:37.717Z,95.70
2023-05-19T11:02:05.306Z,96.80
2023-05-19T11:04:51.887Z,96.90
2023-05-19T11:07:20.418Z,98.10
2023-05-19T11:09:53.251Z,98.70
2023-05-19T11:12:25.102Z,99.00
2023-05-19T11:14:55.777Z,97.00
2023-05-19T11:17:25.522Z,94.50
2023-05-19T11:19:57.041Z,92.90
2023-05-19T11:22:25.897Z,93.60
2023-05-19T11:24:55.184Z,93.20
2023-05-19T11:27:24.638Z,93.00
2023-05-19T11:29:52.100Z,93.60
2023-05-19T11:32:21.358Z,92.40
2023-05-19T11:34:49.453Z,97.10
2023-05-19T11:37:16.472Z,95.60
2023-05-19T11:39:45.232Z,93.90
2023-05-19T11:42:12.186Z,92.50
2023-05-19T11:44:41.022Z,96.20
2023-05-19T11:47:08.416Z,94.20
2023-05-19T11:49:35.349Z,93.70
2023-05-19T11:52:03.194Z,94.70
2023-05-19T11:54:39.195Z,92.90
2023-05-19T11:57:08.153Z,91.60
2023-05-19T11:59:40.508Z,94.30
2023-05-19T12:02:13.920Z,94.30
2023-05-19T12:04:40.967Z,93.50
2023-05-19T12:07:08.169Z,92.90
2023-05-19T12:09:35.633Z,93.20
2023-05-19T12:12:02.967Z,92.50
2023-05-19T12:14:30.979Z,92.80
2023-05-19T12:16:58.166Z,91.00
2023-05-19T12:19:25.723Z,91.80
2023-05-19T12:21:53.680Z,92.60
2023-05-19T12:24:21.526Z,92.90
2023-05-19T12:26:50.219Z,92.40
2023-05-19T12:29:17.153Z,94.20
2023-05-19T12:31:46.746Z,91.90
2023-05-19T12:34:13.430Z,91.30
2023-05-19T12:36:41.575Z,90.90
2023-05-19T12:39:09.429Z,90.10
2023-05-19T12:41:36.137Z,90.30
2023-05-19T12:44:16.613Z,90.80
2023-05-19T12:46:44.326Z,91.10
2023-05-19T12:49:12.416Z,91.20
2023-05-19T12:51:39.084Z,91.30
2023-05-19T12:54:05.807Z,91.00
2023-05-19T12:56:32.516Z,91.10
2023-05-19T12:59:00.762Z,90.90
2023-05-19T13:01:30.132Z,92.00
2023-05-19T13:03:57.364Z,91.50
2023-05-19T13:06:24.074Z,91.70
2023-05-19T13:08:50.724Z,91.70
2023-05-19T13:11:17.455Z,92.40
2023-05-19T13:13:44.264Z,92.40
2023-05-19T13:16:11.006Z,91.70
2023-05-19T13:18:38.314Z,92.30
2023-05-19T13:21:05.685Z,92.10
2023-05-19T13:23:32.384Z,91.80
2023-05-19T13:25:59.317Z,91.50
2023-05-19T13:28:26.347Z,91.60
2023-05-19T13:30:53.070Z,91.20
2023-05-19T13:33:19.849Z,91.80
2023-05-19T13:35:46.532Z,91.50
2023-05-19T13:38:13.258Z,91.10
2023-05-19T13:40:40.394Z,91.20
2023-05-19T13:43:08.484Z,91.20
2023-05-19T13:45:35.332Z,91.60
2023-05-19T13:48:06.851Z,91.00
2023-05-19T13:50:34.221Z,91.20
2023-05-19T13:53:00.982Z,91.60
2023-05-19T13:55:27.680Z,91.60
2023-05-19T13:57:54.406Z,91.50
2023-05-19T14:00:21.367Z,91.20
2023-05-19T14:02:48.233Z,91.20
2023-05-19T14:05:15.040Z,91.10
2023-05-19T14:07:42.342Z,91.40
2023-05-19T14:10:09.508Z,91.20
2023-05-19T14:12:49.353Z,91.40
2023-05-19T14:15:19.791Z,91.20
2023-05-19T14:17:47.095Z,90.60
2023-05-19T14:20:13.813Z,90.40
2023-05-19T14:22:40.478Z,91.90
2023-05-19T14:25:07.747Z,90.60
2023-05-19T14:27:34.406Z,91.10
2023-05-19T14:30:01.067Z,91.80
2023-05-19T14:32:30.250Z,94.00
2023-05-19T14:34:57.330Z,92.40
2023-05-19T14:37:26.405Z,92.10
2023-05-19T14:39:53.430Z,91.30
2023-05-19T14:42:20.096Z,91.50
2023-05-19T14:44:46.752Z,91.20
2023-05-19T14:47:13.492Z,91.10
2023-05-19T14:49:40.294Z,91.10
2023-05-19T14:52:07.088Z,91.00
2023-05-19T14:54:34.024Z,91.10
2023-05-19T14:57:01.512Z,91.10
2023-05-19T14:59:29.520Z,91.60
2023-05-19T15:01:56.317Z,91.70
2023-05-19T15:04:23.104Z,91.90
2023-05-19T15:06:58.263Z,92.40
2023-05-19T15:09:36.050Z,92.40
2023-05-19T15:12:02.888Z,92.40
2023-05-19T15:14:30.852Z,92.20
2023-05-19T15:16:58.454Z,91.90
2023-05-19T15:19:26.036Z,91.90
2023-05-19T15:21:52.834Z,91.80
2023-05-19T15:24:19.484Z,91.70
2023-05-19T15:26:46.981Z,92.10
2023-05-19T15:29:13.650Z,92.30
2023-05-19T15:31:40.449Z,91.90
2023-05-19T15:34:07.204Z,92.00
2023-05-19T15:36:33.893Z,92.20
2023-05-19T15:39:00.651Z,91.90
2023-05-19T15:41:27.344Z,92.00
2023-05-19T15:43:54.016Z,91.80
2023-05-19T15:46:20.813Z,91.90
2023-05-19T15:48:47.577Z,91.90
2023-05-19T15:51:14.291Z,91.90
2023-05-19T15:53:40.983Z,91.90
2023-05-19T15:56:07.954Z,91.90
2023-05-19T15:58:34.706Z,91.90
2023-05-19T16:01:01.546Z,92.00
2023-05-19T16:03:29.791Z,92.20
2023-05-19T16:05:56.856Z,92.30
2023-05-19T16:08:23.567Z,92.40
2023-05-19T16:10:50.293Z,92.30
2023-05-19T16:13:17.129Z,92.40
2023-05-19T16:15:43.794Z,92.20
2023-05-19T16:18:11.580Z,92.20
2023-05-19T16:20:38.701Z,92.50
2023-05-19T16:23:05.593Z,92.50
2023-05-19T16:25:32.587Z,92.00
2023-05-19T16:27:59.256Z,92.20
2023-05-19T16:30:26.506Z,91.90
2023-05-19T16:32:54.288Z,92.10
2023-05-19T16:35:21.871Z,92.20
2023-05-19T16:37:48.997Z,92.20
2023-05-19T16:40:15.701Z,91.90
2023-05-19T16:42:42.494Z,92.10
2023-05-19T16:45:09.737Z,92.30
2023-05-19T16:47:36.666Z,93.10
2023-05-19T16:50:04.031Z,92.90
2023-05-19T16:52:30.814Z,92.70
2023-05-19T16:54:57.606Z,92.70
2023-05-19T16:57:24.340Z,92.80
2023-05-19T16:59:51.105Z,93.60
2023-05-19T17:02:17.988Z,92.70
2023-05-19T17:04:44.733Z,94.10
2023-05-19T17:07:17.747Z,92.80
2023-05-19T17:09:44.745Z,92.90
2023-05-19T17:12:11.449Z,92.30
2023-05-19T17:14:38.192Z,92.30
2023-05-19T17:17:04.900Z,92.00
2023-05-19T17:19:31.833Z,91.90
2023-05-19T17:21:58.627Z,92.00
2023-05-19T17:24:25.667Z,91.90
2023-05-19T17:26:52.380Z,92.10
2023-05-19T17:29:19.036Z,92.40
2023-05-19T17:31:45.871Z,92.40
2023-05-19T17:34:12.558Z,92.40
2023-05-19T17:36:39.179Z,92.60
2023-05-19T17:39:05.904Z,92.60
2023-05-19T17:41:32.692Z,92.60
2023-05-19T17:43:59.403Z,92.80
2023-05-19T17:46:26.317Z,92.80
2023-05-19T17:48:53.058Z,93.00
2023-05-19T17:51:20.000Z,93.00
2023-05-19T17:53:47.056Z,93.20
2023-05-19T17:56:14.216Z,93.20
2023-05-19T17:58:41.467Z,93.20
2023-05-19T18:01:08.688Z,95.10
2023-05-19T18:03:35.619Z,96.50
2023-05-19T18:06:02.690Z,95.90
2023-05-19T18:08:31.142Z,97.00
2023-05-19T18:10:58.294Z,98.10
2023-05-19T18:13:26.009Z,98.10
2023-05-19T18:15:52.832Z,97.90
2023-05-19T18:18:19.727Z,98.20
2023-05-19T18:20:46.455Z,96.90
2023-05-19T18:23:13.181Z,97.30
2023-05-19T18:25:39.855Z,95.60
2023-05-19T18:28:06.703Z,97.10
2023-05-19T18:30:33.599Z,96.90
2023-05-19T18:33:03.437Z,96.40
2023-05-19T18:35:30.356Z,96.10
2023-05-19T18:37:57.345Z,94.50
2023-05-19T18:40:24.564Z,95.60
2023-05-19T18:42:51.236Z,97.10
2023-05-19T18:45:18.134Z,97.10
2023-05-19T18:47:44.979Z,95.70
2023-05-19T18:50:11.712Z,95.90
2023-05-19T18:52:38.385Z,95.90
2023-05-19T18:55:05.477Z,95.70
2023-05-19T18:57:32.206Z,96.00
2023-05-19T18:59:58.885Z,95.80
2023-05-19T19:02:26.085Z,96.80
2023-05-19T19:04:52.868Z,94.40
2023-05-19T19:07:19.691Z,93.60
2023-05-19T19:09:46.414Z,96.60
2023-05-19T19:12:13.148Z,97.60
2023-05-19T19:14:39.838Z,95.60
2023-05-19T19:17:06.526Z,95.70
2023-05-19T19:19:33.273Z,97.60
2023-05-19T19:22:00.031Z,98.30
2023-05-19T19:24:28.347Z,97.00
2023-05-19T19:26:55.092Z,97.50
2023-05-19T19:29:21.925Z,97.50
2023-05-19T19:31:48.865Z,96.90
2023-05-19T19:34:15.848Z,94.90
2023-05-19T19:36:42.577Z,97.50
2023-05-19T19:39:09.364Z,95.30
2023-05-19T19:41:36.596Z,95.70
2023-05-19T19:44:03.546Z,96.20
2023-05-19T19:46:30.284Z,96.90
2023-05-19T19:49:00.307Z,94.10
2023-05-19T19:51:27.792Z,94.40
2023-05-19T19:53:54.859Z,96.40
2023-05-19T19:56:24.437Z,96.50
2023-05-19T19:58:51.133Z,96.00
2023-05-19T20:01:20.301Z,96.50
2023-05-19T20:03:48.400Z,95.00
2023-05-19T20:06:15.231Z,95.00
2023-05-19T20:08:41.986Z,95.60
2023-05-19T20:11:08.787Z,94.60
2023-05-19T20:13:35.544Z,96.00
2023-05-19T20:16:02.225Z,94.70
2023-05-19T20:18:29.785Z,95.10
2023-05-19T20:20:56.852Z,96.90
2023-05-19T20:23:23.573Z,94.40
2023-05-19T20:26:09.352Z,94.40
2023-05-19T20:28:37.419Z,94.50
2023-05-19T20:31:04.695Z,96.10
2023-05-19T20:33:31.774Z,96.10
2023-05-19T20:35:58.471Z,94.30
2023-05-19T20:38:25.206Z,93.90
2023-05-19T20:40:52.604Z,95.60
2023-05-19T20:43:19.384Z,97.40
2023-05-19T20:45:46.436Z,96.90
2023-05-19T20:48:13.296Z,96.70
2023-05-19T20:50:40.087Z,94.70
2023-05-19T20:53:07.323Z,95.70
2023-05-19T20:55:36.073Z,93.50
2023-05-19T20:58:02.976Z,93.10
2023-05-19T21:00:30.580Z,93.30
2023-05-19T21:02:57.773Z,93.30
2023-05-19T21:05:24.771Z,93.50
2023-05-19T21:07:51.471Z,93.10
2023-05-19T21:10:18.268Z,92.20
2023-05-19T21:12:44.969Z,92.10
2023-05-19T21:15:11.802Z,92.10
2023-05-19T21:17:38.521Z,92.90
2023-05-19T21:20:05.851Z,91.80
2023-05-19T21:22:32.595Z,92.00
2023-05-19T21:24:59.225Z,93.50
2023-05-19T21:27:25.855Z,91.20
2023-05-19T21:29:53.928Z,91.20
2023-05-19T21:32:21.665Z,90.80
2023-05-19T21:34:48.477Z,94.50
2023-05-19T21:37:17.123Z,91.30
2023-05-19T21:39:44.270Z,90.50
2023-05-19T21:42:10.992Z,91.20
2023-05-19T21:44:37.657Z,93.30
2023-05-19T21:47:04.333Z,90.80
2023-05-19T21:49:31.375Z,92.20
2023-05-19T21:51:58.392Z,90.40
2023-05-19T21:54:25.116Z,88.40
2023-05-19T21:56:51.826Z,88.50
2023-05-19T21:59:19.414Z,87.30
2023-05-19T22:01:46.708Z,89.20
2023-05-19T22:04:15.449Z,86.80
2023-05-19T22:06:43.131Z,86.20
2023-05-19T22:09:09.939Z,87.00
2023-05-19T22:11:36.641Z,91.20
2023-05-19T22:14:03.261Z,87.00
2023-05-19T22:16:30.971Z,90.30
2023-05-19T22:18:57.783Z,86.30
2023-05-19T22:21:24.520Z,86.40
2023-05-19T22:23:52.200Z,85.90
2023-05-19T22:26:18.868Z,88.10
2023-05-19T22:28:45.645Z,88.10
2023-05-19T22:31:12.355Z,86.90
2023-05-19T22:33:38.985Z,87.50
2023-05-19T22:36:05.852Z,85.70
2023-05-19T22:38:32.451Z,85.60
2023-05-19T22:40:59.088Z,85.30
2023-05-19T22:43:25.798Z,85.70
2023-05-19T22:45:52.471Z,86.10
2023-05-19T22:48:19.125Z,85.20
2023-05-19T22:50:46.032Z,85.20
2023-05-19T22:53:12.658Z,85.20
2023-05-19T22:55:39.293Z,84.90
2023-05-19T22:58:06.466Z,84.80
2023-05-19T23:00:33.401Z,85.00
2023-05-19T23:03:00.075Z,84.50
2023-05-19T23:05:26.806Z,84.50
2023-05-19T23:07:53.561Z,84.50
2023-05-19T23:10:20.264Z,84.80
2023-05-19T23:12:46.913Z,84.40
2023-05-19T23:15:13.601Z,84.10
2023-05-19T23:17:40.410Z,84.00
2023-05-19T23:20:07.516Z,84.10
2023-05-19T23:22:34.142Z,84.70
2023-05-19T23:25:05.486Z,85.70
2023-05-19T23:27:32.138Z,83.70
2023-05-19T23:29:58.807Z,83.90
2023-05-19T23:32:25.643Z,84.90
2023-05-19T23:34:52.291Z,86.60
2023-05-19T23:37:18.950Z,83.70
2023-05-19T23:39:45.628Z,84.80
2023-05-19T23:42:13.081Z,84.30
2023-05-19T23:44:39.722Z,83.90
2023-05-19T23:47:06.703Z,84.60
2023-05-19T23:49:33.425Z,84.20
2023-05-19T23:52:00.140Z,84.60
2023-05-19T23:54:26.811Z,84.20
2023-05-19T23:56:54.480Z,84.60
2023-05-19T23:59:21.223Z,84.60
